sensor_id;sensor_type;location;lat;lon;timestamp;P1;durP1;ratioP1;P2;durP2;ratioP2
33485;SDS011;19824;52.098;5.004;2023-03-23T06:02:39;11.55;;;3.65;;
33485;SDS011;19824;52.098;5.004;2023-03-23T06:05:24;13.35;;;3.50;;
33485;SDS011;19824;52.098;5.004;2023-03-23T06:08:02;12.45;;;3.60;;
33485;SDS011;19824;52.098;5.004;2023-03-23T06:10:33;13.65;;;3.58;;
33485;SDS011;19824;52.098;5.004;2023-03-23T06:13:10;12.00;;;3.35;;
33485;SDS011;19824;52.098;5.004;2023-03-23T06:15:40;11.70;;;3.97;;
33485;SDS011;19824;52.098;5.004;2023-03-23T06:18:19;13.13;;;4.50;;
33485;SDS011;19824;52.098;5.004;2023-03-23T06:20:50;13.23;;;4.55;;
33485;SDS011;19824;52.098;5.004;2023-03-23T06:23:27;13.80;;;4.53;;
33485;SDS011;19824;52.098;5.004;2023-03-23T06:25:58;14.45;;;5.15;;
33485;SDS011;19824;52.098;5.004;2023-03-23T06:28:38;14.98;;;4.65;;
33485;SDS011;19824;52.098;5.004;2023-03-23T06:31:08;14.27;;;4.82;;
33485;SDS011;19824;52.098;5.004;2023-03-23T06:33:47;11.82;;;4.82;;
33485;SDS011;19824;52.098;5.004;2023-03-23T06:36:24;17.60;;;4.68;;
33485;SDS011;19824;52.098;5.004;2023-03-23T06:38:55;13.90;;;4.28;;
33485;SDS011;19824;52.098;5.004;2023-03-23T06:41:32;19.92;;;4.47;;
33485;SDS011;19824;52.098;5.004;2023-03-23T06:44:03;13.00;;;4.53;;
33485;SDS011;19824;52.098;5.004;2023-03-23T06:46:41;15.77;;;4.40;;
33485;SDS011;19824;52.098;5.004;2023-03-23T06:49:14;12.45;;;3.63;;
33485;SDS011;19824;52.098;5.004;2023-03-23T06:51:51;20.67;;;5.03;;
33485;SDS011;19824;52.098;5.004;2023-03-23T06:54:29;13.60;;;4.55;;
33485;SDS011;19824;52.098;5.004;2023-03-23T06:56:59;16.48;;;4.70;;
33485;SDS011;19824;52.098;5.004;2023-03-23T06:59:36;10.85;;;3.95;;
33485;SDS011;19824;52.098;5.004;2023-03-23T07:02:08;14.57;;;4.00;;
33485;SDS011;19824;52.098;5.004;2023-03-23T07:04:48;12.23;;;3.80;;
33485;SDS011;19824;52.098;5.004;2023-03-23T07:07:18;11.27;;;3.40;;
33485;SDS011;19824;52.098;5.004;2023-03-23T07:09:55;12.73;;;3.83;;
33485;SDS011;19824;52.098;5.004;2023-03-23T07:12:25;11.43;;;3.63;;
33485;SDS011;19824;52.098;5.004;2023-03-23T07:15:02;14.88;;;3.58;;
33485;SDS011;19824;52.098;5.004;2023-03-23T07:17:34;14.23;;;3.70;;
33485;SDS011;19824;52.098;5.004;2023-03-23T07:20:14;10.82;;;3.20;;
33485;SDS011;19824;52.098;5.004;2023-03-23T07:22:44;12.73;;;3.80;;
33485;SDS011;19824;52.098;5.004;2023-03-23T07:25:21;15.70;;;3.47;;
33485;SDS011;19824;52.098;5.004;2023-03-23T07:27:58;14.68;;;3.60;;
33485;SDS011;19824;52.098;5.004;2023-03-23T07:30:29;10.82;;;3.33;;
33485;SDS011;19824;52.098;5.004;2023-03-23T07:33:06;9.20;;;3.40;;
33485;SDS011;19824;52.098;5.004;2023-03-23T07:35:41;14.77;;;3.42;;
33485;SDS011;19824;52.098;5.004;2023-03-23T07:38:18;12.10;;;3.47;;
33485;SDS011;19824;52.098;5.004;2023-03-23T07:40:48;13.80;;;3.30;;
33485;SDS011;19824;52.098;5.004;2023-03-23T07:43:26;14.18;;;3.70;;
33485;SDS011;19824;52.098;5.004;2023-03-23T07:45:56;13.18;;;3.85;;
33485;SDS011;19824;52.098;5.004;2023-03-23T07:48:33;13.57;;;3.28;;
33485;SDS011;19824;52.098;5.004;2023-03-23T07:51:07;14.00;;;3.20;;
33485;SDS011;19824;52.098;5.004;2023-03-23T07:53:43;13.23;;;3.00;;
33485;SDS011;19824;52.098;5.004;2023-03-23T07:56:13;11.18;;;3.15;;
33485;SDS011;19824;52.098;5.004;2023-03-23T07:58:52;12.55;;;3.08;;
33485;SDS011;19824;52.098;5.004;2023-03-23T08:01:29;12.98;;;3.17;;
33485;SDS011;19824;52.098;5.004;2023-03-23T08:03:59;9.57;;;2.88;;
33485;SDS011;19824;52.098;5.004;2023-03-23T08:06:38;11.65;;;3.45;;
33485;SDS011;19824;52.098;5.004;2023-03-23T08:09:09;12.07;;;3.13;;
33485;SDS011;19824;52.098;5.004;2023-03-23T08:11:46;10.27;;;3.20;;
33485;SDS011;19824;52.098;5.004;2023-03-23T08:14:16;10.05;;;3.22;;
33485;SDS011;19824;52.098;5.004;2023-03-23T08:16:53;13.55;;;3.17;;
33485;SDS011;19824;52.098;5.004;2023-03-23T08:19:25;13.32;;;3.88;;
33485;SDS011;19824;52.098;5.004;2023-03-23T08:22:05;10.35;;;3.35;;
33485;SDS011;19824;52.098;5.004;2023-03-23T08:24:42;12.77;;;3.55;;
33485;SDS011;19824;52.098;5.004;2023-03-23T08:27:12;13.40;;;3.35;;
33485;SDS011;19824;52.098;5.004;2023-03-23T08:29:49;12.90;;;3.17;;
33485;SDS011;19824;52.098;5.004;2023-03-23T08:32:26;14.63;;;3.45;;
33485;SDS011;19824;52.098;5.004;2023-03-23T08:34:59;9.15;;;2.70;;
33485;SDS011;19824;52.098;5.004;2023-03-23T08:37:38;10.93;;;2.90;;
33485;SDS011;19824;52.098;5.004;2023-03-23T08:40:11;12.85;;;3.50;;
33485;SDS011;19824;52.098;5.004;2023-03-23T08:42:52;11.90;;;3.45;;
33485;SDS011;19824;52.098;5.004;2023-03-23T08:45:29;9.35;;;3.20;;
33485;SDS011;19824;52.098;5.004;2023-03-23T08:47:59;11.90;;;3.08;;
33485;SDS011;19824;52.098;5.004;2023-03-23T08:50:36;11.52;;;3.50;;
33485;SDS011;19824;52.098;5.004;2023-03-23T08:53:16;11.88;;;3.58;;
33485;SDS011;19824;52.098;5.004;2023-03-23T08:55:47;11.63;;;3.53;;
33485;SDS011;19824;52.098;5.004;2023-03-23T08:58:24;9.32;;;3.15;;
33485;SDS011;19824;52.098;5.004;2023-03-23T09:00:57;12.35;;;2.92;;
33485;SDS011;19824;52.098;5.004;2023-03-23T09:03:34;9.52;;;2.95;;
33485;SDS011;19824;52.098;5.004;2023-03-23T09:06:13;11.82;;;2.80;;
33485;SDS011;19824;52.098;5.004;2023-03-23T09:08:46;10.63;;;3.10;;
33485;SDS011;19824;52.098;5.004;2023-03-23T09:11:23;12.85;;;3.05;;
33485;SDS011;19824;52.098;5.004;2023-03-23T09:14:00;11.82;;;2.72;;
33485;SDS011;19824;52.098;5.004;2023-03-23T09:16:38;13.07;;;3.53;;
33485;SDS011;19824;52.098;5.004;2023-03-23T09:19:09;11.50;;;3.17;;
33485;SDS011;19824;52.098;5.004;2023-03-23T09:21:46;12.55;;;3.55;;
33485;SDS011;19824;52.098;5.004;2023-03-23T09:24:25;13.80;;;3.55;;
33485;SDS011;19824;52.098;5.004;2023-03-23T09:26:56;13.20;;;3.35;;
33485;SDS011;19824;52.098;5.004;2023-03-23T09:29:34;14.07;;;3.70;;
33485;SDS011;19824;52.098;5.004;2023-03-23T09:32:11;13.40;;;3.50;;
33485;SDS011;19824;52.098;5.004;2023-03-23T09:34:48;13.95;;;3.53;;
33485;SDS011;19824;52.098;5.004;2023-03-23T09:37:28;10.95;;;3.25;;
33485;SDS011;19824;52.098;5.004;2023-03-23T09:40:12;13.93;;;3.40;;
33485;SDS011;19824;52.098;5.004;2023-03-23T09:42:52;13.50;;;3.50;;
33485;SDS011;19824;52.098;5.004;2023-03-23T09:45:43;13.10;;;3.33;;
33485;SDS011;19824;52.098;5.004;2023-03-23T09:48:38;11.05;;;3.05;;
33485;SDS011;19824;52.098;5.004;2023-03-23T09:51:29;10.45;;;3.45;;
33485;SDS011;19824;52.098;5.004;2023-03-23T09:54:11;13.25;;;3.20;;
33485;SDS011;19824;52.098;5.004;2023-03-23T09:56:58;14.82;;;3.33;;
33485;SDS011;19824;52.098;5.004;2023-03-23T09:59:31;10.70;;;3.17;;
33485;SDS011;19824;52.098;5.004;2023-03-23T10:02:15;16.20;;;3.70;;
33485;SDS011;19824;52.098;5.004;2023-03-23T10:05:06;12.63;;;3.40;;
33485;SDS011;19824;52.098;5.004;2023-03-23T10:08:02;11.15;;;2.90;;
33485;SDS011;19824;52.098;5.004;2023-03-23T10:10:48;12.25;;;3.30;;
33485;SDS011;19824;52.098;5.004;2023-03-23T10:13:41;9.90;;;2.78;;
33485;SDS011;19824;52.098;5.004;2023-03-23T10:16:35;11.15;;;3.03;;
33485;SDS011;19824;52.098;5.004;2023-03-23T10:19:17;8.57;;;2.90;;
33485;SDS011;19824;52.098;5.004;2023-03-23T10:21:59;12.65;;;3.28;;
33485;SDS011;19824;52.098;5.004;2023-03-23T10:24:42;11.10;;;2.88;;
33485;SDS011;19824;52.098;5.004;2023-03-23T10:27:19;9.73;;;2.72;;
33485;SDS011;19824;52.098;5.004;2023-03-23T10:30:11;12.02;;;3.03;;
33485;SDS011;19824;52.098;5.004;2023-03-23T10:32:50;13.18;;;3.58;;
33485;SDS011;19824;52.098;5.004;2023-03-23T10:35:33;13.82;;;3.75;;
33485;SDS011;19824;52.098;5.004;2023-03-23T10:38:11;12.73;;;3.53;;
33485;SDS011;19824;52.098;5.004;2023-03-23T10:40:56;15.27;;;3.50;;
33485;SDS011;19824;52.098;5.004;2023-03-23T10:43:31;15.77;;;3.42;;
33485;SDS011;19824;52.098;5.004;2023-03-23T10:46:16;12.38;;;3.20;;
33485;SDS011;19824;52.098;5.004;2023-03-23T10:49:02;14.10;;;3.40;;
33485;SDS011;19824;52.098;5.004;2023-03-23T10:51:47;14.27;;;3.80;;
33485;SDS011;19824;52.098;5.004;2023-03-23T10:54:32;15.15;;;3.83;;
33485;SDS011;19824;52.098;5.004;2023-03-23T10:57:21;11.65;;;3.15;;
33485;SDS011;19824;52.098;5.004;2023-03-23T10:59:58;13.88;;;3.78;;
33485;SDS011;19824;52.098;5.004;2023-03-23T11:02:45;16.20;;;3.97;;
33485;SDS011;19824;52.098;5.004;2023-03-23T11:05:34;14.10;;;3.10;;
33485;SDS011;19824;52.098;5.004;2023-03-23T11:08:10;15.65;;;3.60;;
33485;SDS011;19824;52.098;5.004;2023-03-23T11:10:51;13.13;;;3.70;;
33485;SDS011;19824;52.098;5.004;2023-03-23T11:13:27;13.35;;;3.47;;
33485;SDS011;19824;52.098;5.004;2023-03-23T11:16:07;13.25;;;3.42;;
33485;SDS011;19824;52.098;5.004;2023-03-23T11:18:42;11.70;;;3.42;;
33485;SDS011;19824;52.098;5.004;2023-03-23T11:21:19;13.85;;;3.17;;
33485;SDS011;19824;52.098;5.004;2023-03-23T11:23:53;12.75;;;3.45;;
33485;SDS011;19824;52.098;5.004;2023-03-23T11:26:35;16.38;;;3.10;;
33485;SDS011;19824;52.098;5.004;2023-03-23T11:29:22;14.25;;;3.42;;
33485;SDS011;19824;52.098;5.004;2023-03-23T11:32:02;13.77;;;3.70;;
33485;SDS011;19824;52.098;5.004;2023-03-23T11:34:45;12.00;;;3.63;;
33485;SDS011;19824;52.098;5.004;2023-03-23T11:37:23;11.30;;;3.55;;
33485;SDS011;19824;52.098;5.004;2023-03-23T11:40:14;14.52;;;3.40;;
33485;SDS011;19824;52.098;5.004;2023-03-23T11:42:57;13.93;;;3.42;;
33485;SDS011;19824;52.098;5.004;2023-03-23T11:45:37;16.25;;;3.75;;
33485;SDS011;19824;52.098;5.004;2023-03-23T11:48:18;16.55;;;3.50;;
33485;SDS011;19824;52.098;5.004;2023-03-23T11:51:05;13.88;;;3.70;;
33485;SDS011;19824;52.098;5.004;2023-03-23T11:53:48;17.60;;;4.38;;
33485;SDS011;19824;52.098;5.004;2023-03-23T11:56:29;15.63;;;3.50;;
33485;SDS011;19824;52.098;5.004;2023-03-23T11:59:13;14.80;;;3.33;;
33485;SDS011;19824;52.098;5.004;2023-03-23T12:01:47;16.58;;;3.70;;
33485;SDS011;19824;52.098;5.004;2023-03-23T12:04:50;11.50;;;2.92;;
33485;SDS011;19824;52.098;5.004;2023-03-23T12:07:45;10.32;;;2.88;;
33485;SDS011;19824;52.098;5.004;2023-03-23T12:10:34;11.48;;;3.00;;
33485;SDS011;19824;52.098;5.004;2023-03-23T12:13:24;12.00;;;2.80;;
33485;SDS011;19824;52.098;5.004;2023-03-23T12:16:28;12.55;;;3.40;;
33485;SDS011;19824;52.098;5.004;2023-03-23T12:19:24;12.53;;;2.93;;
33485;SDS011;19824;52.098;5.004;2023-03-23T12:22:15;14.93;;;3.17;;
33485;SDS011;19824;52.098;5.004;2023-03-23T12:25:14;12.45;;;3.40;;
33485;SDS011;19824;52.098;5.004;2023-03-23T12:28:17;11.45;;;2.60;;
33485;SDS011;19824;52.098;5.004;2023-03-23T12:31:03;10.07;;;2.50;;
33485;SDS011;19824;52.098;5.004;2023-03-23T12:33:53;10.98;;;2.67;;
33485;SDS011;19824;52.098;5.004;2023-03-23T12:36:32;8.10;;;2.40;;
33485;SDS011;19824;52.098;5.004;2023-03-23T12:42:27;9.32;;;2.53;;
33485;SDS011;19824;52.098;5.004;2023-03-23T12:45:18;9.48;;;2.42;;
33485;SDS011;19824;52.098;5.004;2023-03-23T12:48:00;10.38;;;2.67;;
33485;SDS011;19824;52.098;5.004;2023-03-23T12:50:37;7.72;;;2.20;;
33485;SDS011;19824;52.098;5.004;2023-03-23T12:53:22;7.28;;;2.20;;
33485;SDS011;19824;52.098;5.004;2023-03-23T12:56:04;9.02;;;2.60;;
33485;SDS011;19824;52.098;5.004;2023-03-23T13:01:43;8.88;;;2.40;;
33485;SDS011;19824;52.098;5.004;2023-03-23T13:04:26;6.88;;;2.20;;
33485;SDS011;19824;52.098;5.004;2023-03-23T13:07:02;11.65;;;2.65;;
33485;SDS011;19824;52.098;5.004;2023-03-23T13:09:47;9.80;;;2.50;;
33485;SDS011;19824;52.098;5.004;2023-03-23T13:12:30;8.35;;;2.30;;
33485;SDS011;19824;52.098;5.004;2023-03-23T13:15:11;9.73;;;2.42;;
33485;SDS011;19824;52.098;5.004;2023-03-23T13:18:04;8.68;;;2.58;;
33485;SDS011;19824;52.098;5.004;2023-03-23T13:20:55;9.00;;;2.30;;
33485;SDS011;19824;52.098;5.004;2023-03-23T13:23:33;9.02;;;2.40;;
33485;SDS011;19824;52.098;5.004;2023-03-23T13:26:16;8.57;;;2.65;;
33485;SDS011;19824;52.098;5.004;2023-03-23T13:28:57;10.75;;;2.60;;
33485;SDS011;19824;52.098;5.004;2023-03-23T13:31:39;8.50;;;2.35;;
33485;SDS011;19824;52.098;5.004;2023-03-23T13:34:12;10.57;;;2.80;;
33485;SDS011;19824;52.098;5.004;2023-03-23T13:36:55;9.70;;;2.60;;
33485;SDS011;19824;52.098;5.004;2023-03-23T13:39:29;11.30;;;2.70;;
33485;SDS011;19824;52.098;5.004;2023-03-23T13:42:18;10.55;;;2.78;;
33485;SDS011;19824;52.098;5.004;2023-03-23T13:45:08;11.55;;;2.88;;
33485;SDS011;19824;52.098;5.004;2023-03-23T13:48:17;8.15;;;2.70;;
33485;SDS011;19824;52.098;5.004;2023-03-23T13:50:53;8.35;;;2.35;;
33485;SDS011;19824;52.098;5.004;2023-03-23T13:53:42;11.25;;;3.05;;
33485;SDS011;19824;52.098;5.004;2023-03-23T13:56:21;14.30;;;3.13;;
33485;SDS011;19824;52.098;5.004;2023-03-23T13:59:05;9.68;;;2.45;;
